Stormwatcher's Retreat Logo




                  Temp     Hi    Low   Out    Dew  Wind  Wind   Wind    Hi    Hi   Wind   Heat    THW   THSW                Rain  Solar   Solar Hi Solar   UV    UV    Hi     Heat    Cool    In     In    In     In     In   In Air          Wind  Wind    ISS   Arc.
  Date    Time     Out   Temp   Temp   Hum    Pt. Speed   Dir    Run Speed   Dir  Chill  Index  Index  Index   Bar    Rain  Rate   Rad.  Energy    Rad.  Index  Dose   UV     D-D     D-D    Temp   Hum    Dew   Heat    EMC Density     ET   Samp   Tx   Recept  Int.
------------------------------------------------------------------------------------------------------------------------------------------------------------------------------------------------------------------------------------------------------------------------
 3/01/21 12:10a   43.8   43.8   43.7    92   41.6   0.0   ESE   0.00   2.0   ESE   43.8   43.9   43.9   40.4  30.135  0.00  0.00     0     0.00      0     0.0  0.00   0.0   0.147   0.000   70.0    47   48.8   68.0   8.75  .0746    0.000   201    7    100.0   10 
 3/01/21 12:20a   43.9   43.9   43.7    92   41.7   1.0   ESE   0.17   4.0   ESE   43.9   44.0   44.0   40.5  30.126  0.00  0.00     0     0.00      0     0.0  0.00   0.0   0.147   0.000   69.9    47   48.7   67.9   8.75  .0746    0.000   204    7    100.0   10 
 3/01/21 12:30a   44.0   44.1   43.9    92   41.8   2.0   ESE   0.33   6.0   ESE   44.0   44.1   44.1   40.6  30.124  0.00  0.00     0     0.00      0     0.0  0.00   0.0   0.146   0.000   69.9    47   48.7   67.9   8.75  .0746    0.000   204    7    100.0   10 
 3/01/21 12:40a   44.2   44.2   44.0    92   42.0   3.0   ESE   0.50   7.0    SE   43.1   44.3   43.2   39.8  30.120  0.00  0.00     0     0.00      0     0.0  0.00   0.0   0.144   0.000   69.8    47   48.7   67.9   8.75  .0746    0.000   202    7    100.0   10 
 3/01/21 12:50a   44.2   44.2   44.2    92   42.0   2.0    SE   0.33   7.0   SSE   44.2   44.3   44.3   40.9  30.116  0.00  0.00     0     0.00      0     0.0  0.00   0.0   0.144   0.000   69.7    47   48.6   67.8   8.76  .0746    0.000   202    7    100.0   10 
 3/01/21  1:00a   44.3   44.3   44.2    92   42.1   3.0   ESE   0.50   8.0   SSE   43.2   44.4   43.3   39.9  30.110  0.00  0.00     0     0.00      0     0.0  0.00   0.0   0.144   0.000   69.6    47   48.5   67.7   8.76  .0746    0.000   201    7    100.0   10 
 3/01/21  1:10a   44.5   44.5   44.3    92   42.3   4.0   ESE   0.67   7.0     E   42.5   44.6   42.6   39.2  30.107  0.00  0.00     0     0.00      0     0.0  0.00   0.0   0.142   0.000   69.6    47   48.5   67.7   8.76  .0746    0.000   201    7    100.0   10 
 3/01/21  1:20a   44.5   44.6   44.5    92   42.3   5.0   ESE   0.83  11.0   ESE   41.8   44.6   41.9   38.5  30.102  0.00  0.00     0     0.00      0     0.0  0.00   0.0   0.142   0.000   69.5    47   48.4   67.6   8.76  .0746    0.000   201    7    100.0   10 
 3/01/21  1:30a   44.7   44.7   44.5    92   42.5   5.0   ESE   0.83  10.0   ESE   42.0   44.8   42.1   38.7  30.099  0.00  0.00     0     0.00      0     0.0  0.00   0.0   0.141   0.000   69.4    47   48.3   67.6   8.76  .0746    0.000   201    7    100.0   10 
 3/01/21  1:40a   44.8   44.8   44.7    92   42.6   5.0   ESE   0.83   9.0   ESE   42.1   44.9   42.2   38.8  30.097  0.00  0.00     0     0.00      0     0.0  0.00   0.0   0.140   0.000   69.4    47   48.3   67.6   8.76  .0746    0.000   203    7    100.0   10 
 3/01/21  1:50a   44.9   45.0   44.7    92   42.7   4.0   ESE   0.67   8.0   ESE   43.0   45.0   43.1   39.7  30.098  0.00  0.00     0     0.00      0     0.0  0.00   0.0   0.140   0.000   69.3    47   48.2   67.5   8.76  .0746    0.000   201    7    100.0   10 
 3/01/21  2:00a   45.0   45.0   44.9    92   42.8   2.0    SE   0.33   7.0     S   45.0   45.1   45.1   41.7  30.094  0.00  0.00     0     0.00      0     0.0  0.00   0.0   0.139   0.000   69.2    47   48.1   67.4   8.77  .0746    0.000   202    7    100.0   10 
 3/01/21  2:10a   44.7   45.0   44.7    92   42.5   2.0     S   0.33   5.0   SSE   44.7   44.8   44.8   41.4  30.097  0.00  0.00     0     0.00      0     0.0  0.00   0.0   0.141   0.000   69.2    47   48.1   67.4   8.77  .0746    0.000   204    7    100.0   10 
 3/01/21  2:20a   44.3   44.7   44.3    92   42.1   2.0     S   0.33   5.0   SSW   44.3   44.4   44.4   41.0  30.093  0.00  0.00     0     0.00      0     0.0  0.00   0.0   0.144   0.000   69.1    47   48.0   67.4   8.77  .0746    0.000   203    7    100.0   10 
 3/01/21  2:30a   44.0   44.3   44.0    92   41.8   1.0   ESE   0.17   3.0   SSE   44.0   44.1   44.1   40.6  30.088  0.00  0.00     0     0.00      0     0.0  0.00   0.0   0.146   0.000   69.1    47   48.0   67.4   8.77  .0746    0.000   200    7    100.0   10 
 3/01/21  2:40a   43.8   44.0   43.8    92   41.6   0.0   ESE   0.00   3.0   ESE   43.8   43.9   43.9   40.4  30.083  0.00  0.00     0     0.00      0     0.0  0.00   0.0   0.147   0.000   69.0    47   47.9   67.3   8.77  .0746    0.000   204    7    100.0   10 
 3/01/21  2:50a   43.8   43.8   43.6    92   41.6   1.0   ESE   0.17   5.0    SE   43.8   43.9   43.9   40.4  30.077  0.00  0.00     0     0.00      0     0.0  0.00   0.0   0.147   0.000   68.9    47   47.8   67.2   8.77  .0746    0.000   202    7    100.0   10 
 3/01/21  3:00a   44.1   44.1   43.7    93   42.2   0.0   ESE   0.00   4.0     S   44.1   44.3   44.3   40.9  30.075  0.00  0.00     0     0.00      0     0.0  0.00   0.0   0.145   0.000   68.9    47   47.8   67.2   8.77  .0746    0.000   202    7    100.0   10 
 3/01/21  3:10a   44.1   44.2   44.0    93   42.2   1.0     S   0.17   3.0    SE   44.1   44.3   44.3   40.9  30.074  0.00  0.00     0     0.00      0     0.0  0.00   0.0   0.145   0.000   68.8    47   47.7   67.1   8.77  .0746    0.000   203    7    100.0   10 
 3/01/21  3:20a   43.9   44.2   43.9    92   41.7   2.0     S   0.33   5.0     S   43.9   44.0   44.0   40.5  30.074  0.00  0.00     0     0.00      0     0.0  0.00   0.0   0.147   0.000   68.8    47   47.7   67.1   8.77  .0746    0.000   201    7    100.0   10 
 3/01/21  3:30a   43.6   43.9   43.6    92   41.4   2.0    SE   0.33   4.0     S   43.6   43.7   43.7   40.2  30.073  0.00  0.00     0     0.00      0     0.0  0.00   0.0   0.149   0.000   68.7    47   47.6   67.0   8.78  .0747    0.000   205    7    100.0   10 
 3/01/21  3:40a   43.4   43.6   43.4    92   41.2   1.0   SSE   0.17   4.0   SSE   43.4   43.5   43.5   40.0  30.079  0.00  0.00     0     0.00      0     0.0  0.00   0.0   0.150   0.000   68.7    47   47.6   67.0   8.78  .0747    0.000   203    7    100.0   10 
 3/01/21  3:50a   43.1   43.4   43.1    92   40.9   0.0   ---   0.00   0.0   ---   43.1   43.1   43.1   39.6  30.077  0.00  0.00     0     0.00      0     0.0  0.00   0.0   0.152   0.000   68.6    47   47.6   66.9   8.78  .0747    0.000   200    7    100.0   10 
 3/01/21  4:00a   42.6   43.1   42.5    92   40.4   0.0   ---   0.00   0.0   ---   42.6   42.6   42.6   39.1  30.075  0.00  0.00     0     0.00      0     0.0  0.00   0.0   0.156   0.000   68.5    47   47.5   66.8   8.78  .0747    0.000   203    7    100.0   10 
 3/01/21  4:10a   42.1   42.6   42.1    92   39.9   0.0   ---   0.00   0.0   ---   42.1   42.1   42.1   38.5  30.073  0.00  0.00     0     0.00      0     0.0  0.00   0.0   0.159   0.000   68.4    47   47.4   66.8   8.78  .0747    0.000   205    7    100.0   10 
 3/01/21  4:20a   41.5   42.1   41.5    92   39.3   0.0   ---   0.00   0.0   ---   41.5   41.5   41.5   37.9  30.070  0.00  0.00     0     0.00      0     0.0  0.00   0.0   0.163   0.000   68.4    47   47.4   66.8   8.78  .0747    0.000   204    7    100.0   10 
 3/01/21  4:30a   41.2   41.6   41.2    92   39.1   0.0   ---   0.00   0.0   ---   41.2   41.2   41.2   37.6  30.072  0.00  0.00     0     0.00      0     0.0  0.00   0.0   0.165   0.000   68.3    47   47.3   66.7   8.78  .0747    0.000   200    7    100.0   10 
 3/01/21  4:40a   40.9   41.2   40.8    92   38.8   0.0   ---   0.00   0.0   ---   40.9   40.9   40.9   37.3  30.071  0.00  0.00     0     0.00      0     0.0  0.00   0.0   0.167   0.000   68.2    47   47.2   66.6   8.79  .0747    0.000   202    7    100.0   10 
 3/01/21  4:50a   40.7   40.9   40.7    92   38.6   0.0   ---   0.00   0.0   ---   40.7   40.7   40.7   37.1  30.073  0.00  0.00     0     0.00      0     0.0  0.00   0.0   0.169   0.000   68.2    47   47.2   66.6   8.79  .0747    0.000   203    7    100.0   10 
 3/01/21  5:00a   41.0   41.0   40.7    93   39.1   0.0   ---   0.00   0.0   ---   41.0   41.0   41.0   37.4  30.074  0.00  0.00     0     0.00      0     0.0  0.00   0.0   0.167   0.000   68.1    47   47.1   66.5   8.79  .0748    0.000   201    7    100.0   10 
 3/01/21  5:10a   41.2   41.2   41.0    93   39.3   0.0   ---   0.00   0.0   ---   41.2   41.2   41.2   37.6  30.073  0.00  0.00     0     0.00      0     0.0  0.00   0.0   0.165   0.000   68.0    47   47.0   66.4   8.79  .0748    0.000   198    7    100.0   10 
 3/01/21  5:20a   41.3   41.3   41.2    93   39.4   1.0   ESE   0.17   3.0    SE   41.3   41.3   41.3   37.7  30.068  0.00  0.00     0     0.00      0     0.0  0.00   0.0   0.165   0.000   68.0    47   47.0   66.4   8.79  .0748    0.000   199    7    100.0   10 
 3/01/21  5:30a   41.2   41.3   41.2    93   39.3   0.0    SE   0.00   2.0    SE   41.2   41.2   41.2   37.6  30.063  0.00  0.00     0     0.00      0     0.0  0.00   0.0   0.165   0.000   67.9    47   46.9   66.3   8.79  .0748    0.000   200    7    100.0   10 
 3/01/21  5:40a   41.1   41.3   41.1    93   39.2   0.0    SE   0.00   2.0    SE   41.1   41.1   41.1   37.5  30.061  0.00  0.00     0     0.00      0     0.0  0.00   0.0   0.166   0.000   67.9    47   46.9   66.3   8.79  .0748    0.000   202    7    100.0   10 
 3/01/21  5:50a   41.1   41.2   41.1    93   39.2   1.0    SE   0.17   3.0    SE   41.1   41.1   41.1   37.5  30.059  0.00  0.00     0     0.00      0     0.0  0.00   0.0   0.166   0.000   67.8    47   46.8   66.2   8.79  .0748    0.000   203    7    100.0   10 
 3/01/21  6:00a   41.2   41.2   41.1    93   39.3   1.0    SE   0.17   3.0    SE   41.2   41.2   41.2   37.6  30.059  0.00  0.00     0     0.00      0     0.0  0.00   0.0   0.165   0.000   67.7    47   46.7   66.1   8.80  .0748    0.000   200    7    100.0   10 
 3/01/21  6:10a   41.3   41.3   41.2    93   39.4   1.0    SE   0.17   4.0    SE   41.3   41.3   41.3   37.7  30.057  0.00  0.00     0     0.00      0     0.0  0.00   0.0   0.165   0.000   67.7    47   46.7   66.1   8.80  .0748    0.000   204    7    100.0   10 
 3/01/21  6:20a   41.8   41.8   41.3    94   40.2   2.0   ESE   0.33   7.0   ESE   41.8   41.9   41.9   38.4  30.061  0.00  0.00     0     0.00      0     0.0  0.00   0.0   0.161   0.000   67.8    47   46.8   66.2   8.79  .0748    0.000   202    7    100.0   10 
 3/01/21  6:30a   42.0   42.1   41.8    94   40.4   3.0   ESE   0.50   8.0   ESE   40.6   42.1   40.7   37.2  30.060  0.00  0.00     0     0.00      0     0.0  0.00   0.0   0.160   0.000   68.0    47   47.0   66.4   8.79  .0747    0.000   204    7    100.0   10 
 3/01/21  6:40a   42.4   42.4   42.1    94   40.8   3.0   ESE   0.50   8.0   ESE   41.1   42.5   41.2   37.7  30.060  0.00  0.00     0     0.00      0     0.0  0.00   0.0   0.157   0.000   68.1    47   47.1   66.5   8.79  .0747    0.000   200    7    100.0   10 
 3/01/21  6:50a   42.5   42.5   42.3    93   40.6   2.0    SE   0.33   6.0     S   42.5   42.6   42.6   39.1  30.063  0.00  0.00     0     0.00      0     0.0  0.00   0.0   0.156   0.000   68.3    47   47.3   66.7   8.78  .0747    0.000   202    7    100.0   10 
 3/01/21  7:00a   42.5   42.5   42.5    93   40.6   1.0    SE   0.17   5.0     E   42.5   42.6   42.6   39.2  30.064  0.00  0.00     5     0.07      9     0.0  0.00   0.0   0.156   0.000   68.5    47   47.5   66.8   8.78  .0747    0.000   201    7    100.0   10 
 3/01/21  7:10a   42.6   42.6   42.5    93   40.7   2.0   SSE   0.33   8.0   ENE   42.6   42.7   42.7   39.5  30.066  0.00  0.00    16     0.23     23     0.0  0.00   0.0   0.156   0.000   68.7    47   47.6   67.0   8.78  .0746    0.000   202    7    100.0   10 
 3/01/21  7:20a   42.9   42.9   42.5    94   41.3   2.0     E   0.33   6.0     E   42.9   43.0   43.0   40.2  30.071  0.00  0.00    33     0.47     42     0.0  0.00   0.0   0.153   0.000   69.0    47   47.9   67.3   8.77  .0746    0.000   202    7    100.0   10 
 3/01/21  7:30a   43.1   43.1   42.9    94   41.5   1.0     S   0.17   4.0     S   43.1   43.2   43.2   40.8  30.077  0.00  0.00    50     0.72     56     0.0  0.00   0.0   0.152   0.000   69.1    47   48.0   67.4   8.77  .0746    0.000   203    7    100.0   10 
 3/01/21  7:40a   43.2   43.2   43.1    93   41.3   1.0    SE   0.17   4.0   ESE   43.2   43.3   43.3   41.3  30.078  0.00  0.00    70     1.00     79     0.0  0.00   0.0   0.151   0.000   69.1    47   48.0   67.4   8.77  .0746    0.000   203    7    100.0   10 
 3/01/21  7:50a   42.9   43.2   42.8    93   41.0   1.0   SSE   0.17   4.0     S   42.9   43.0   43.0   41.2  30.081  0.00  0.00    79     1.13     84     0.0  0.00   0.0   0.153   0.000   69.2    47   48.1   67.4   8.77  .0746    0.000   200    7    100.0   10 
 3/01/21  8:00a   42.7   42.8   42.7    93   40.8   2.0   SSE   0.33   5.0     S   42.7   42.8   42.8   41.3  30.082  0.00  0.00    93     1.33     98     0.0  0.00   0.0   0.155   0.000   69.4    47   48.3   67.6   8.76  .0746    0.001   202    7    100.0   10 
 3/01/21  8:10a   42.8   42.9   42.7    93   40.9   3.0     S   0.50   6.0     S   41.6   42.9   41.7   43.4  30.086  0.00  0.00    98     1.40    105     0.0  0.00   0.0   0.154   0.000   69.5    47   48.4   67.6   8.76  .0746    0.000   204    7    100.0   10 
 3/01/21  8:20a   43.1   43.2   42.8    94   41.5   2.0     S   0.33   4.0   SSE   43.1   43.2   43.2   44.7  30.083  0.00  0.00    84     1.20     88     0.0  0.00   0.0   0.152   0.000   69.6    46   47.9   67.6   8.65  .0745    0.000   203    7    100.0   10 
 3/01/21  8:30a   43.6   43.7   43.1    94   42.0   2.0     S   0.33   5.0     S   43.6   43.7   43.7   45.2  30.084  0.00  0.00    84     1.20     84     0.0  0.00   0.0   0.149   0.000   69.7    46   48.0   67.7   8.65  .0745    0.000   203    7    100.0   10 
 3/01/21  8:40a   44.1   44.1   43.7    94   42.5   2.0     S   0.33   5.0     S   44.1   44.3   44.3   45.7  30.087  0.00  0.00    82     1.18     83     0.0  0.00   0.0   0.145   0.000   69.8    46   48.1   67.8   8.65  .0745    0.000   201    7    100.0   10 
 3/01/21  8:50a   44.3   44.3   44.0    93   42.4   2.0   SSE   0.33   5.0    SE   44.3   44.5   44.5   46.0  30.089  0.00  0.00    87     1.25     91     0.0  0.00   0.0   0.144   0.000   69.8    46   48.1   67.8   8.65  .0745    0.000   203    7    100.0   10 
 3/01/21  9:00a   44.5   44.5   44.3    93   42.6   1.0    SE   0.17   4.0   SSE   44.5   44.7   44.7   46.1  30.093  0.00  0.00    85     1.22     91     0.5  0.04   0.5   0.142   0.000   69.9    46   48.2   67.8   8.65  .0745    0.001   202    7    100.0   10 
 3/01/21  9:10a   44.6   44.6   44.5    93   42.7   1.0    SE   0.17   3.0    SE   44.6   44.8   44.8   45.5  30.094  0.00  0.00    70     1.00     76     0.6  0.04   0.6   0.142   0.000   69.9    46   48.2   67.8   8.65  .0745    0.000   204    7    100.0   10 
 3/01/21  9:20a   44.7   44.7   44.5    93   42.8   0.0     S   0.00   5.0     S   44.7   44.9   44.9   45.8  30.093  0.00  0.00    75     1.08     86     0.6  0.04   0.7   0.141   0.000   69.9    46   48.2   67.8   8.65  .0745    0.000   203    7    100.0   10 
 3/01/21  9:30a   45.2   45.2   44.7    93   43.3   3.0     S   0.50   6.0   SSW   44.2   45.4   44.4   46.5  30.095  0.00  0.00   109     1.56    121     0.7  0.05   0.8   0.137   0.000   70.0    46   48.3   67.9   8.65  .0745    0.000   201    7    100.0   10 
 3/01/21  9:40a   46.1   46.1   45.2    93   44.2   3.0     S   0.50   5.0     S   45.3   46.3   45.5   47.8  30.104  0.00  0.00   117     1.68    123     0.8  0.06   0.9   0.131   0.000   70.1    46   48.4   68.0   8.65  .0745    0.000   201    7    100.0   10 
 3/01/21  9:50a   46.6   46.6   46.0    93   44.7   2.0     S   0.33   5.0   SSE   46.6   46.8   46.8   49.5  30.108  0.00  0.00   129     1.85    137     0.9  0.06   0.9   0.128   0.000   70.0    46   48.3   67.9   8.65  .0745    0.000   202    7    100.0   10 
 3/01/21 10:00a   47.2   47.2   46.6    93   45.3   2.0   SSW   0.33   5.0   SSW   47.2   47.5   47.5   50.8  30.109  0.00  0.00   148     2.12    165     0.9  0.06   0.9   0.124   0.000   70.0    46   48.3   67.9   8.65  .0745    0.002   202    7    100.0   10 
 3/01/21 10:10a   47.7   47.7   47.2    93   45.8   3.0   SSW   0.50   5.0   SSE   47.1   48.0   47.4   51.7  30.109  0.00  0.00   183     2.62    199     0.9  0.06   1.0   0.120   0.000   70.0    46   48.3   67.9   8.65  .0745    0.000   202    7    100.0   10 
 3/01/21 10:20a   48.1   48.1   47.7    92   45.9   4.0     S   0.67   6.0     S   46.7   48.4   47.0   51.5  30.115  0.00  0.00   193     2.77    200     1.1  0.08   1.1   0.117   0.000   70.0    46   48.3   67.9   8.65  .0746    0.000   202    7    100.0   10 
 3/01/21 10:30a   48.2   48.3   48.1    92   46.0   4.0   SSW   0.67   8.0   SSE   46.8   48.5   47.1   51.7  30.117  0.00  0.00   198     2.84    227     1.2  0.09   1.2   0.117   0.000   70.1    46   48.4   68.0   8.65  .0745    0.000   200    7    100.0   10 
 3/01/21 10:40a   48.0   48.2   47.9    92   45.8   7.0   SSW   1.17  11.0   SSE   44.8   48.3   45.1   48.4  30.116  0.00  0.00   160     2.29    169     1.2  0.09   1.2   0.118   0.000   70.2    46   48.4   68.2   8.65  .0745    0.000   199    7    100.0   10 
 3/01/21 10:50a   48.1   48.1   47.9    92   45.9   8.0   SSW   1.33  12.0   SSE   44.2   48.4   44.5   48.4  30.118  0.00  0.00   188     2.70    206     1.3  0.09   1.4   0.117   0.000   70.4    46   48.6   68.4   8.64  .0745    0.000   200    7    100.0   10 
 3/01/21 11:00a   48.3   48.4   48.1    92   46.1   8.0   SSW   1.33  11.0   SSE   44.5   48.6   44.8   49.1  30.115  0.00  0.00   201     2.88    209     1.5  0.11   1.5   0.116   0.000   70.6    46   48.8   68.7   8.64  .0745    0.004   200    7    100.0   10 
 3/01/21 11:10a   48.1   48.3   48.1    92   45.9   8.0   SSW   1.33  11.0     S   44.2   48.4   44.5   48.0  30.120  0.00  0.00   176     2.52    185     1.4  0.10   1.4   0.117   0.000   70.7    46   48.9   68.8   8.64  .0745    0.000   199    7    100.0   10 
 3/01/21 11:20a   48.0   48.1   48.0    91   45.5   8.0   SSW   1.33  12.0   SSE   44.1   48.2   44.3   48.9  30.117  0.00  0.00   221     3.17    248     1.5  0.11   1.5   0.118   0.000   70.7    46   48.9   68.8   8.64  .0744    0.000   200    7    100.0   10 
 3/01/21 11:30a   48.0   48.1   47.9    92   45.8   8.0   SSW   1.33  12.0     S   44.1   48.3   44.4   50.2  30.115  0.00  0.00   265     3.80    276     1.5  0.11   1.6   0.118   0.000   70.7    46   48.9   68.8   8.64  .0744    0.000   200    7    100.0   10 
 3/01/21 11:40a   48.2   48.2   48.0    92   46.0   6.0   SSW   1.00  10.0    SW   45.5   48.5   45.8   52.0  30.117  0.00  0.00   265     3.80    276     1.5  0.11   1.6   0.117   0.000   70.7    46   48.9   68.8   8.64  .0744    0.000   203    7    100.0   10 
 3/01/21 11:50a   48.3   48.4   48.2    92   46.1   5.0    SW   0.83   9.0   SSE   46.2   48.6   46.5   52.9  30.118  0.00  0.00   272     3.90    274     1.5  0.11   1.5   0.116   0.000   70.8    46   49.0   68.9   8.63  .0744    0.000   203    7    100.0   10 
 3/01/21 12:00p   48.4   48.4   48.3    92   46.2   5.0    SW   0.83   8.0   WSW   46.3   48.7   46.6   52.8  30.120  0.00  0.00   266     3.81    278     1.5  0.11   1.5   0.115   0.000   70.8    46   49.0   68.9   8.63  .0744    0.005   199    7    100.0   10 
 3/01/21 12:10p   48.4   48.4   48.3    92   46.2   4.0    SW   0.67   6.0    SW   47.0   48.7   47.3   53.0  30.124  0.00  0.00   248     3.56    251     1.4  0.10   1.4   0.115   0.000   70.8    46   49.0   68.9   8.63  .0744    0.000   204    7    100.0   10 
 3/01/21 12:20p   48.4   48.5   48.4    92   46.2   4.0    SW   0.67   6.0   SSE   47.0   48.7   47.3   53.3  30.127  0.00  0.00   257     3.68    267     1.4  0.10   1.4   0.115   0.000   70.9    46   49.1   69.1   8.63  .0744    0.000   201    7    100.0   10 
 3/01/21 12:30p   48.5   48.5   48.4    92   46.3   3.0    SW   0.50   5.0    SW   48.0   48.8   48.3   54.8  30.127  0.00  0.00   276     3.96    290     1.5  0.11   1.5   0.115   0.000   71.0    46   49.2   69.2   8.63  .0744    0.000   201    7    100.0   10 
 3/01/21 12:40p   48.7   48.8   48.5    92   46.5   3.0   SSW   0.50   5.0   SSE   48.2   49.1   48.6   55.3  30.127  0.00  0.00   283     4.06    301     1.5  0.11   1.6   0.113   0.000   71.2    46   49.4   69.5   8.63  .0744    0.000   201    7    100.0   10 
 3/01/21 12:50p   49.0   49.0   48.7    91   46.5   2.0     S   0.33   4.0   SSW   49.0   49.3   49.3   57.9  30.125  0.00  0.00   363     5.20    459     1.7  0.12   2.0   0.111   0.000   71.2    46   49.4   69.5   8.63  .0744    0.000   200    7    100.0   10 
 3/01/21  1:00p   49.3   49.3   49.0    91   46.8   3.0    SW   0.50   5.0   SSE   48.9   49.6   49.2   57.5  30.123  0.00  0.00   346     4.96    367     1.8  0.13   1.8   0.109   0.000   71.3    46   49.4   69.7   8.62  .0744    0.005   199    7    100.0   10 
 3/01/21  1:10p   49.2   49.3   49.2    91   46.7   4.0   SSW   0.67   7.0   SSE   47.9   49.5   48.2   55.6  30.118  0.00  0.00   304     4.36    330     1.6  0.11   1.7   0.110   0.000   71.3    46   49.4   69.7   8.62  .0743    0.000   201    7    100.0   10 
 3/01/21  1:20p   49.3   49.3   49.2    91   46.8   3.0   SSW   0.50   5.0     S   48.9   49.6   49.2   56.5  30.111  0.00  0.00   297     4.26    316     1.6  0.11   1.6   0.109   0.000   71.3    46   49.4   69.7   8.62  .0743    0.000   197    7     99.5   10 
 3/01/21  1:30p   49.5   49.6   49.3    90   46.7   2.0   SSW   0.33   3.0   SSW   49.5   49.8   49.8   57.6  30.108  0.00  0.00   312     4.47    387     1.6  0.11   1.6   0.108   0.000   71.3    46   49.4   69.7   8.62  .0743    0.000   201    7    100.0   10 
 3/01/21  1:40p   50.3   50.3   49.6    90   47.5   2.0     W   0.33   3.0   SSW   50.3   50.6   50.6   59.7  30.105  0.00  0.00   406     5.82    455     1.8  0.13   2.0   0.102   0.000   71.3    46   49.4   69.7   8.62  .0743    0.000   200    7    100.0   10 
 3/01/21  1:50p   50.9   50.9   50.3    90   48.1   2.0   WNW   0.33   4.0   WNW   50.9   51.1   51.1   59.8  30.107  0.00  0.00   380     5.45    431     1.8  0.13   2.0   0.098   0.000   71.3    46   49.4   69.7   8.62  .0743    0.000   202    7    100.0   10 
 3/01/21  2:00p   51.4   51.5   50.9    88   48.0   2.0     N   0.33   4.0   NNW   51.4   51.5   51.5   63.9  30.105  0.00  0.00   490     7.02    559     2.0  0.14   2.1   0.094   0.000   71.3    46   49.4   69.7   8.62  .0743    0.007   201    7    100.0   10 
 3/01/21  2:10p   51.5   51.5   51.2    88   48.1   3.0    NE   0.50   7.0   NNE   51.4   51.6   51.5   67.2  30.102  0.00  0.00   572     8.20    629     2.0  0.14   2.1   0.094   0.000   71.3    46   49.4   69.7   8.62  .0743    0.000   202    7    100.0   10 
 3/01/21  2:20p   50.8   51.5   50.8    88   47.4   5.0    NE   0.83   8.0   ENE   49.2   50.9   49.3   57.3  30.096  0.00  0.00   310     4.44    350     1.4  0.10   1.5   0.099   0.000   71.3    46   49.4   69.7   8.62  .0743    0.000   202    7    100.0   10 
 3/01/21  2:30p   50.5   50.9   50.5    87   46.8   6.0    NE   1.00   9.0   NNE   48.3   50.6   48.4   56.9  30.091  0.00  0.00   336     4.82    376     1.4  0.10   1.4   0.101   0.000   71.4    46   49.5   69.8   8.62  .0743    0.000   200    7    100.0   10 
 3/01/21  2:40p   50.4   50.5   50.3    88   47.0   6.0    NE   1.00   9.0    NE   48.2   50.6   48.4   56.3  30.090  0.00  0.00   307     4.40    334     1.2  0.09   1.3   0.101   0.000   71.6    46   49.7   70.1   8.62  .0742    0.000   202    7    100.0   10 
 3/01/21  2:50p   50.6   50.6   50.3    87   46.9   5.0    NE   0.83   9.0    NE   48.9   50.7   49.0   59.3  30.091  0.00  0.00   361     5.18    390     1.3  0.09   1.3   0.100   0.000   71.6    46   49.7   70.1   8.62  .0742    0.000   203    7    100.0   10 
 3/01/21  3:00p   51.2   51.2   50.6    87   47.5   6.0     N   1.00  11.0    NE   49.1   51.3   49.2   63.7  30.087  0.00  0.00   458     6.57    598     1.3  0.09   1.5   0.096   0.000   71.6    46   49.7   70.1   8.62  .0742    0.008   202    7    100.0   10 
 3/01/21  3:10p   51.7   51.7   51.2    87   48.0   7.0     N   1.17  11.0   ENE   49.2   51.8   49.3   64.1  30.089  0.00  0.00   458     6.57    541     1.2  0.09   1.4   0.092   0.000   71.7    46   49.8   70.2   8.62  .0742    0.000   203    7    100.0   10 
 3/01/21  3:20p   51.0   51.6   51.0    87   47.3   7.0   NNE   1.17  11.0    NE   48.4   51.1   48.5   56.5  30.091  0.00  0.00   277     3.97    362     0.9  0.06   1.0   0.097   0.000   71.7    46   49.8   70.2   8.62  .0742    0.000   202    7    100.0   10 
 3/01/21  3:30p   50.6   51.0   50.6    87   46.9   6.0    NE   1.00  10.0    NE   48.4   50.7   48.5   53.8  30.086  0.00  0.00   199     2.85    223     0.8  0.06   0.8   0.100   0.000   71.6    46   49.7   70.1   8.62  .0742    0.000   202    7    100.0   10 
 3/01/21  3:40p   50.6   50.8   50.6    88   47.2   5.0    NE   0.83   9.0   ENE   48.9   50.8   49.1   56.2  30.085  0.00  0.00   232     3.33    318     0.7  0.05   0.8   0.100   0.000   71.6    46   49.7   70.1   8.62  .0742    0.000   203    7    100.0   10 
 3/01/21  3:50p   50.5   50.7   50.4    88   47.1   5.0    NE   0.83   9.0   NNE   48.8   50.7   49.0   52.1  30.085  0.00  0.00   138     1.98    197     0.6  0.04   0.7   0.101   0.000   71.6    46   49.7   70.1   8.62  .0742    0.000   202    7    100.0   10 
 3/01/21  4:00p   50.0   50.5   50.0    88   46.6   5.0    NE   0.83   9.0    NE   48.2   50.2   48.4   47.6  30.087  0.00  0.00   114     1.63    134     0.4  0.03   0.5   0.104   0.000   71.6    46   49.7   70.1   8.62  .0742    0.005   204    7    100.0   10 
 3/01/21  4:10p   50.2   50.2   50.0    89   47.1   5.0    NE   0.83   9.0   NNE   48.4   50.4   48.6   49.9  30.090  0.00  0.00   209     3.00    292     0.4  0.03   0.5   0.103   0.000   71.6    46   49.7   70.1   8.62  .0742    0.000   203    7    100.0   10 
 3/01/21  4:20p   50.3   50.3   50.2    89   47.2   4.0    NE   0.67   8.0   NNE   49.2   50.5   49.4   49.9  30.092  0.00  0.00   175     2.51    248     0.1  0.01   0.5   0.102   0.000   71.6    47   50.3   70.2   8.75  .0742    0.000   202    7    100.0   10 
 3/01/21  4:30p   50.3   50.3   50.2    89   47.2   3.0    NE   0.50   6.0    NE   50.0   50.5   50.2   50.3  30.091  0.00  0.00   155     2.22    165     0.0  0.00   0.0   0.102   0.000   71.6    47   50.3   70.2   8.75  .0742    0.000   202    7    100.0   10 
 3/01/21  4:40p   50.1   50.3   50.1    89   47.0   3.0    NE   0.50   5.0     N   49.8   50.3   50.0   49.7  30.091  0.00  0.00   138     1.98    158     0.0  0.00   0.0   0.103   0.000   71.6    47   50.3   70.2   8.75  .0742    0.000   202    7    100.0   10 
 3/01/21  4:50p   49.8   50.1   49.8    89   46.7   2.0    NE   0.33   4.0     N   49.8   50.1   50.1   48.7  30.089  0.00  0.00    87     1.25    100     0.0  0.00   0.0   0.106   0.000   71.6    47   50.3   70.2   8.75  .0742    0.000   198    7    100.0   10 
 3/01/21  5:00p   49.8   49.8   49.7    89   46.7   1.0    NE   0.17   3.0    NE   49.8   50.1   50.1   48.9  30.089  0.00  0.00    98     1.40    125     0.0  0.00   0.0   0.106   0.000   71.6    48   50.9   70.3   8.88  .0742    0.003   203    7    100.0   10 
 3/01/21  5:10p   49.9   50.0   49.8    89   46.8   0.0   ---   0.00   0.0   ---   49.9   50.2   50.2   49.2  30.090  0.00  0.00   106     1.52    121     0.0  0.00   0.0   0.105   0.000   71.6    49   51.4   70.4   9.05  .0742    0.000   203    7    100.0   10 
 3/01/21  5:20p   50.6   50.6   50.0    90   47.8   0.0   ---   0.00   0.0   ---   50.6   50.8   50.8   50.0  30.089  0.00  0.00   113     1.62    127     0.0  0.00   0.0   0.100   0.000   71.6    49   51.4   70.4   9.05  .0742    0.000   201    7    100.0   10 
 3/01/21  5:30p   50.7   50.9   50.6    89   47.6   2.0    NW   0.33   4.0   NNW   50.7   50.9   50.9   49.5  30.089  0.00  0.00    86     1.23    105     0.0  0.00   0.0   0.099   0.000   71.6    50   52.0   70.5   9.25  .0741    0.000   202    7    100.0   10 
 3/01/21  5:40p   50.5   50.8   50.5    89   47.4   2.0    NW   0.33   4.0    NW   50.5   50.7   50.7   48.6  30.089  0.00  0.00    52     0.75     63     0.0  0.00   0.0   0.101   0.000   71.6    50   52.0   70.5   9.25  .0741    0.000   200    7    100.0   10 
 3/01/21  5:50p   49.9   50.5   49.9    89   46.8   2.0    NW   0.33   3.0    NW   49.9   50.2   50.2   47.6  30.093  0.00  0.00    30     0.43     35     0.0  0.00   0.0   0.105   0.000   71.7    50   52.1   70.6   9.25  .0741    0.000   203    7    100.0   10 
 3/01/21  6:00p   49.4   49.9   49.4    89   46.3   1.0   NNE   0.17   3.0     N   49.4   49.7   49.7   46.7  30.096  0.00  0.00    12     0.17     21     0.0  0.00   0.0   0.108   0.000   71.6    50   52.0   70.5   9.25  .0742    0.001   202    7    100.0   10 
 3/01/21  6:10p   49.0   49.4   49.0    89   45.9   0.0   ---   0.00   0.0   ---   49.0   49.3   49.3   46.1  30.096  0.00  0.00     3     0.04      7     0.0  0.00   0.0   0.111   0.000   71.6    50   52.0   70.5   9.25  .0742    0.000   199    7    100.0   10 
 3/01/21  6:20p   48.4   48.9   48.4    89   45.3   0.0   ---   0.00   0.0   ---   48.4   48.6   48.6   45.3  30.098  0.00  0.00     0     0.00      0     0.0  0.00   0.0   0.115   0.000   71.5    50   51.9   70.3   9.25  .0742    0.000   203    7    100.0   10 
 3/01/21  6:30p   47.9   48.4   47.9    89   44.8   0.0   ---   0.00   0.0   ---   47.9   48.1   48.1   44.8  30.101  0.00  0.00     0     0.00      0     0.0  0.00   0.0   0.119   0.000   71.4    49   51.2   70.1   9.05  .0742    0.000   202    7    100.0   10 
 3/01/21  6:40p   47.5   47.9   47.4    89   44.4   0.0   ---   0.00   0.0   ---   47.5   47.7   47.7   44.4  30.099  0.00  0.00     0     0.00      0     0.0  0.00   0.0   0.122   0.000   71.4    49   51.2   70.1   9.05  .0742    0.000   204    7    100.0   10 
 3/01/21  6:50p   47.1   47.4   47.1    90   44.3   0.0   ---   0.00   0.0   ---   47.1   47.3   47.3   44.0  30.103  0.00  0.00     0     0.00      0     0.0  0.00   0.0   0.124   0.000   71.4    49   51.2   70.1   9.05  .0742    0.000   199    7    100.0   10 
 3/01/21  7:00p   47.0   47.2   47.0    90   44.2   0.0   ---   0.00   0.0   ---   47.0   47.2   47.2   43.9  30.105  0.00  0.00     0     0.00      0     0.0  0.00   0.0   0.125   0.000   71.3    49   51.1   70.0   9.05  .0743    0.000   204    7    100.0   10 
 3/01/21  7:10p   47.0   47.0   46.9    90   44.2   0.0   ---   0.00   0.0   ---   47.0   47.2   47.2   43.9  30.113  0.00  0.00     0     0.00      0     0.0  0.00   0.0   0.125   0.000   71.3    49   51.1   70.0   9.05  .0743    0.000   199    7    100.0   10 
 3/01/21  7:20p   46.3   47.0   46.3    90   43.5   0.0   ---   0.00   0.0   ---   46.3   46.4   46.4   43.0  30.114  0.00  0.00     0     0.00      0     0.0  0.00   0.0   0.130   0.000   71.3    49   51.1   70.0   9.05  .0743    0.000   201    7    100.0   10 
 3/01/21  7:30p   45.8   46.4   45.8    90   43.0   0.0   ---   0.00   0.0   ---   45.8   45.9   45.9   42.5  30.115  0.00  0.00     0     0.00      0     0.0  0.00   0.0   0.133   0.000   71.3    49   51.1   70.0   9.05  .0743    0.000   202    7    100.0   10 
 3/01/21  7:40p   45.3   45.8   45.3    90   42.5   0.0   ---   0.00   0.0   ---   45.3   45.4   45.4   42.0  30.118  0.00  0.00     0     0.00      0     0.0  0.00   0.0   0.137   0.000   71.2    49   51.1   69.8   9.05  .0743    0.000   201    7    100.0   10 
 3/01/21  7:50p   44.8   45.3   44.8    90   42.0   0.0   ---   0.00   0.0   ---   44.8   44.9   44.9   41.5  30.123  0.00  0.00     0     0.00      0     0.0  0.00   0.0   0.140   0.000   71.2    48   50.5   69.7   8.87  .0743    0.000   202    7    100.0   10 
 3/01/21  8:00p   44.5   44.8   44.5    91   42.0   0.0   ---   0.00   0.0   ---   44.5   44.6   44.6   41.2  30.124  0.00  0.00     0     0.00      0     0.0  0.00   0.0   0.142   0.000   71.1    48   50.4   69.6   8.87  .0744    0.000   201    7    100.0   10 
 3/01/21  8:10p   44.1   44.5   44.1    90   41.4   0.0   ---   0.00   0.0   ---   44.1   44.2   44.2   40.7  30.128  0.00  0.00     0     0.00      0     0.0  0.00   0.0   0.145   0.000   71.0    48   50.3   69.4   8.87  .0744    0.000   204    7    100.0   10 
 3/01/21  8:20p   43.6   44.1   43.6    91   41.1   0.0   ---   0.00   0.0   ---   43.6   43.7   43.7   40.2  30.126  0.00  0.00     0     0.00      0     0.0  0.00   0.0   0.149   0.000   71.0    48   50.3   69.4   8.87  .0744    0.000   201    7    100.0   10 
 3/01/21  8:30p   43.4   43.7   43.3    91   40.9   0.0   ---   0.00   0.0   ---   43.4   43.5   43.5   40.0  30.126  0.00  0.00     0     0.00      0     0.0  0.00   0.0   0.150   0.000   70.9    48   50.2   69.3   8.87  .0744    0.000   200    7    100.0   10 
 3/01/21  8:40p   43.3   43.4   43.2    91   40.8   0.0   ---   0.00   0.0   ---   43.3   43.3   43.3   39.8  30.123  0.00  0.00     0     0.00      0     0.0  0.00   0.0   0.151   0.000   70.8    48   50.1   69.1   8.87  .0744    0.000   200    7    100.0   10 
 3/01/21  8:50p   43.1   43.3   43.1    92   40.9   0.0   ---   0.00   0.0   ---   43.1   43.1   43.1   39.6  30.127  0.00  0.00     0     0.00      0     0.0  0.00   0.0   0.152   0.000   70.7    48   50.0   69.0   8.86  .0744    0.000   199    7    100.0   10 
 3/01/21  9:00p   42.8   43.1   42.8    91   40.4   0.0   ---   0.00   0.0   ---   42.8   42.8   42.8   39.3  30.123  0.00  0.00     0     0.00      0     0.0  0.00   0.0   0.154   0.000   70.7    48   50.0   69.0   8.86  .0744    0.000   200    7    100.0   10 
 3/01/21  9:10p   42.5   42.8   42.5    92   40.3   0.0   ---   0.00   0.0   ---   42.5   42.5   42.5   39.0  30.119  0.00  0.00     0     0.00      0     0.0  0.00   0.0   0.156   0.000   70.6    48   50.0   68.9   8.86  .0744    0.000   203    7    100.0   10 
 3/01/21  9:20p   42.5   42.5   42.4    92   40.3   0.0   ---   0.00   0.0   ---   42.5   42.5   42.5   39.0  30.122  0.00  0.00     0     0.00      0     0.0  0.00   0.0   0.156   0.000   70.5    48   49.9   68.8   8.86  .0745    0.000   202    7    100.0   10 
 3/01/21  9:30p   42.7   42.7   42.5    92   40.5   1.0    SE   0.17   5.0    SE   42.7   42.7   42.7   39.2  30.120  0.00  0.00     0     0.00      0     0.0  0.00   0.0   0.155   0.000   70.4    48   49.8   68.6   8.86  .0745    0.000   203    7    100.0   10 
 3/01/21  9:40p   43.1   43.2   42.7    92   40.9   0.0   SSE   0.00   3.0   SSE   43.1   43.1   43.1   39.6  30.131  0.00  0.00     0     0.00      0     0.0  0.00   0.0   0.152   0.000   70.3    48   49.7   68.5   8.86  .0745    0.000   200    7    100.0   10 
 3/01/21  9:50p   43.1   43.1   43.0    92   40.9   0.0    SE   0.00   2.0    SE   43.1   43.1   43.1   39.6  30.135  0.00  0.00     0     0.00      0     0.0  0.00   0.0   0.152   0.000   70.3    48   49.7   68.5   8.86  .0745    0.000   203    7    100.0   10 
 3/01/21 10:00p   42.5   43.1   42.5    92   40.3   1.0    SE   0.17   2.0    SE   42.5   42.5   42.5   39.0  30.139  0.00  0.00     0     0.00      0     0.0  0.00   0.0   0.156   0.000   70.2    48   49.6   68.4   8.85  .0745    0.000   199    7    100.0   10 
 3/01/21 10:10p   42.1   42.5   42.1    92   39.9   0.0   ---   0.00   0.0   ---   42.1   42.1   42.1   38.5  30.136  0.00  0.00     0     0.00      0     0.0  0.00   0.0   0.159   0.000   70.1    48   49.5   68.2   8.85  .0746    0.000   203    7    100.0   10 
 3/01/21 10:20p   42.1   42.2   42.0    93   40.2   0.0   ---   0.00   0.0   ---   42.1   42.2   42.2   38.7  30.135  0.00  0.00     0     0.00      0     0.0  0.00   0.0   0.159   0.000   70.0    48   49.4   68.1   8.85  .0746    0.000   200    7    100.0   10 
 3/01/21 10:30p   42.2   42.2   42.1    93   40.3   0.0   ---   0.00   0.0   ---   42.2   42.3   42.3   38.8  30.136  0.00  0.00     0     0.00      0     0.0  0.00   0.0   0.158   0.000   69.9    48   49.3   68.0   8.85  .0746    0.000   201    7    100.0   10 
 3/01/21 10:40p   42.1   42.3   42.1    92   39.9   0.0   ---   0.00   0.0   ---   42.1   42.1   42.1   38.5  30.137  0.00  0.00     0     0.00      0     0.0  0.00   0.0   0.159   0.000   69.9    48   49.3   68.0   8.85  .0746    0.000   200    7    100.0   10 
 3/01/21 10:50p   41.8   42.1   41.8    92   39.6   0.0   ---   0.00   0.0   ---   41.8   41.8   41.8   38.2  30.140  0.00  0.00     0     0.00      0     0.0  0.00   0.0   0.161   0.000   69.8    47   48.7   67.9   8.75  .0746    0.000   203    7    100.0   10 
 3/01/21 11:00p   41.3   41.8   41.3    92   39.2   0.0   ---   0.00   0.0   ---   41.3   41.3   41.3   37.7  30.140  0.00  0.00     0     0.00      0     0.0  0.00   0.0   0.165   0.000   69.7    47   48.6   67.8   8.76  .0747    0.000   202    7    100.0   10 
 3/01/21 11:10p   41.0   41.3   41.0    92   38.9   0.0   ---   0.00   0.0   ---   41.0   41.0   41.0   37.4  30.143  0.00  0.00     0     0.00      0     0.0  0.00   0.0   0.167   0.000   69.6    47   48.5   67.7   8.76  .0747    0.000   198    7    100.0   10 
 3/01/21 11:20p   41.0   41.1   41.0    93   39.1   0.0   ---   0.00   0.0   ---   41.0   41.0   41.0   37.4  30.145  0.00  0.00     0     0.00      0     0.0  0.00   0.0   0.167   0.000   69.5    47   48.4   67.6   8.76  .0747    0.000   201    7    100.0   10 
 3/01/21 11:30p   41.2   41.2   41.0    93   39.3   0.0   ---   0.00   0.0   ---   41.2   41.2   41.2   37.6  30.138  0.00  0.00     0     0.00      0     0.0  0.00   0.0   0.165   0.000   69.5    47   48.4   67.6   8.76  .0747    0.000   201    7    100.0   10 
 3/01/21 11:40p   41.4   41.4   41.2    93   39.5   0.0   ---   0.00   0.0   ---   41.4   41.4   41.4   37.8  30.137  0.00  0.00     0     0.00      0     0.0  0.00   0.0   0.164   0.000   69.4    47   48.3   67.6   8.76  .0747    0.000   196    7     99.0   10 
 3/01/21 11:50p   41.6   41.6   41.4    93   39.7   0.0   ---   0.00   0.0   ---   41.6   41.6   41.6   38.0  30.141  0.00  0.00     0     0.00      0     0.0  0.00   0.0   0.163   0.000   69.3    47   48.2   67.5   8.76  .0747    0.000   200    7    100.0   10 
 3/02/21 12:00a   41.7   41.7   41.6    93   39.8   0.0   ---   0.00   0.0   ---   41.7   41.7   41.7   38.1  30.144  0.00  0.00     0     0.00      0     0.0  0.00   0.0   0.162   0.000   69.2    47   48.1   67.4   8.77  .0748    0.000   201    7    100.0   10 
 3/02/21 12:10a   41.8   41.8   41.7    93   39.9   0.0   ---   0.00   0.0   ---   41.8   41.9   41.9   38.3  30.147  0.00  0.00     0     0.00      0     0.0  0.00   0.0   0.161   0.000   69.2    47   48.1   67.4   8.77  .0748    0.000   202    7    100.0   10 
 3/02/21 12:20a   42.0   42.0   41.8    94   40.4   0.0   ---   0.00   0.0   ---   42.0   42.1   42.1   38.6  30.146  0.00  0.00     0     0.00      0     0.0  0.00   0.0   0.160   0.000   69.1    47   48.0   67.4   8.77  .0748    0.000   201    7    100.0   10 
 3/02/21 12:30a   42.0   42.0   41.9    94   40.4   0.0   ---   0.00   0.0   ---   42.0   42.1   42.1   38.6  30.148  0.00  0.00     0     0.00      0     0.0  0.00   0.0   0.160   0.000   69.1    47   48.0   67.4   8.77  .0748    0.000   197    7     99.5   10 
 3/02/21 12:40a   42.2   42.2   42.0    94   40.6   0.0   ---   0.00   0.0   ---   42.2   42.3   42.3   38.8  30.145  0.00  0.00     0     0.00      0     0.0  0.00   0.0   0.158   0.000   69.0    47   47.9   67.3   8.77  .0748    0.000   198    7    100.0   10 
 3/02/21 12:50a   42.5   42.5   42.1    94   40.9   0.0   ---   0.00   0.0   ---   42.5   42.6   42.6   39.1  30.145  0.00  0.00     0     0.00      0     0.0  0.00   0.0   0.156   0.000   69.0    47   47.9   67.3   8.77  .0748    0.000   197    7     99.5   10 
 3/02/21  1:00a   42.7   42.7   42.5    94   41.1   0.0   ---   0.00   0.0   ---   42.7   42.8   42.8   39.3  30.145  0.00  0.00     0     0.00      0     0.0  0.00   0.0   0.155   0.000   68.9    47   47.8   67.2   8.77  .0748    0.000   193    7     97.5   10 
 3/02/21  1:10a   42.7   42.7   42.6    94   41.1   0.0   ENE   0.00   4.0   ENE   42.7   42.8   42.8   39.3  30.142  0.00  0.00     0     0.00      0     0.0  0.00   0.0   0.155   0.000   68.8    47   47.7   67.1   8.77  .0748    0.000   201    7    100.0   10 
 3/02/21  1:20a   43.2   43.2   42.7    94   41.6   1.0   ENE   0.17   4.0   ENE   43.2   43.3   43.3   39.8  30.141  0.00  0.00     0     0.00      0     0.0  0.00   0.0   0.151   0.000   68.7    47   47.6   67.0   8.78  .0748    0.000   197    7     99.5   10 
 3/02/21  1:30a   43.6   43.6   43.1    94   42.0   0.0   ENE   0.00   2.0   ENE   43.6   43.7   43.7   40.2  30.144  0.00  0.00     0     0.00      0     0.0  0.00   0.0   0.149   0.000   68.7    47   47.6   67.0   8.78  .0748    0.000   202    7    100.0   10 
 3/02/21  1:40a   43.6   43.7   43.5    94   42.0   2.0   ENE   0.33   4.0   ENE   43.6   43.7   43.7   40.2  30.146  0.00  0.00     0     0.00      0     0.0  0.00   0.0   0.149   0.000   68.6    47   47.6   66.9   8.78  .0749    0.000   196    7     99.0   10 
 3/02/21  1:50a   43.5   43.7   43.4    94   41.9   3.0   ESE   0.50   6.0   ESE   42.3   43.6   42.4   38.9  30.145  0.00  0.00     0     0.00      0     0.0  0.00   0.0   0.149   0.000   68.6    47   47.6   66.9   8.78  .0749    0.000   201    7    100.0   10 
 3/02/21  2:00a   43.3   43.5   43.2    94   41.7   3.0   ESE   0.50   7.0    SE   42.1   43.4   42.2   38.7  30.141  0.00  0.00     0     0.00      0     0.0  0.00   0.0   0.151   0.000   68.5    47   47.5   66.8   8.78  .0749    0.000   199    7    100.0   10 
 3/02/21  2:10a   43.2   43.3   43.2    94   41.6   5.0   ESE   0.83  12.0   ESE   40.2   43.3   40.3   36.8  30.134  0.00  0.00     0     0.00      0     0.0  0.00   0.0   0.151   0.000   68.5    47   47.5   66.8   8.78  .0748    0.000   202    7    100.0   10 
 3/02/21  2:20a   43.2   43.2   43.1    94   41.6   6.0   ESE   1.00  12.0    SE   39.5   43.3   39.6   36.1  30.128  0.00  0.00     0     0.00      0     0.0  0.00   0.0   0.151   0.000   68.4    47   47.4   66.8   8.78  .0748    0.000   198    7    100.0   10 
 3/02/21  2:30a   43.4   43.4   43.2    94   41.8   6.0   ESE   1.00  12.0    SE   39.8   43.5   39.9   36.4  30.125  0.00  0.00     0     0.00      0     0.0  0.00   0.0   0.150   0.000   68.3    47   47.3   66.7   8.78  .0749    0.000   198    7    100.0   10 
 3/02/21  2:40a   43.3   43.4   43.2    94   41.7   7.0   ESE   1.17  13.0     E   39.2   43.4   39.3   35.8  30.126  0.00  0.00     0     0.00      0     0.0  0.00   0.0   0.151   0.000   68.2    47   47.2   66.6   8.79  .0749    0.000   203    7    100.0   10 
 3/02/21  2:50a   43.1   43.3   43.1    94   41.5   6.0   ESE   1.00  11.0    SE   39.4   43.2   39.5   36.0  30.120  0.00  0.00     0     0.00      0     0.0  0.00   0.0   0.152   0.000   68.2    47   47.2   66.6   8.79  .0749    0.000   200    7    100.0   10 
 3/02/21  3:00a   42.9   43.1   42.9    94   41.3   6.0   ESE   1.00  11.0   ESE   39.2   43.0   39.3   35.8  30.114  0.00  0.00     0     0.00      0     0.0  0.00   0.0   0.153   0.000   68.2    47   47.2   66.6   8.79  .0748    0.000   202    7    100.0   10 
 3/02/21  3:10a   42.8   43.1   42.8    94   41.2   6.0   ESE   1.00  13.0   ESE   39.1   42.9   39.2   35.7  30.112  0.00  0.00     0     0.00      0     0.0  0.00   0.0   0.154   0.000   68.1    47   47.1   66.5   8.79  .0749    0.000   202    7    100.0   10 
 3/02/21  3:20a   42.7   42.9   42.7    94   41.1   6.0   ESE   1.00  12.0     E   38.9   42.8   39.0   35.5  30.107  0.00  0.00     0     0.00      0     0.0  0.00   0.0   0.155   0.000   68.0    47   47.0   66.4   8.79  .0749    0.000   200    7    100.0   10 
 3/02/21  3:30a   42.7   42.7   42.6    94   41.1   6.0   ESE   1.00  12.0   ESE   38.9   42.8   39.0   35.5  30.102  0.00  0.00     0     0.00      0     0.0  0.00   0.0   0.155   0.000   67.9    47   46.9   66.3   8.79  .0749    0.000   200    7    100.0   10 
 3/02/21  3:40a   42.7   42.7   42.6    94   41.1   5.0   ESE   0.83  11.0   ESE   39.6   42.8   39.7   36.2  30.096  0.00  0.00     0     0.00      0     0.0  0.00   0.0   0.155   0.000   67.9    47   46.9   66.3   8.79  .0749    0.000   197    7     99.5   10 
 3/02/21  3:50a   42.7   42.7   42.6    94   41.1   5.0    SE   0.83   9.0   SSE   39.6   42.8   39.7   36.2  30.097  0.00  0.00     0     0.00      0     0.0  0.00   0.0   0.155   0.000   67.8    47   46.8   66.2   8.79  .0749    0.000   201    7    100.0   10 
 3/02/21  4:00a   42.6   42.7   42.6    94   41.0   4.0    SE   0.67  11.0   ESE   40.3   42.7   40.4   36.9  30.097  0.00  0.00     0     0.00      0     0.0  0.00   0.0   0.156   0.000   67.7    47   46.7   66.1   8.80  .0749    0.000   201    7    100.0   10 
 3/02/21  4:10a   42.3   42.6   42.2    94   40.7   7.0   ESE   1.17  13.0     S   37.9   42.4   38.0   34.5  30.096  0.00  0.00     0     0.00      0     0.0  0.00   0.0   0.158   0.000   67.7    47   46.7   66.1   8.80  .0749    0.000   200    7    100.0   10 
 3/02/21  4:20a   42.4   42.4   42.2    95   41.1   4.0   ESE   0.67   9.0    SE   40.1   42.5   40.2   36.7  30.099  0.00  0.00     0     0.00      0     0.0  0.00   0.0   0.157   0.000   67.6    47   46.6   66.0   8.80  .0749    0.000   196    7     99.0   10 
 3/02/21  4:30a   42.5   42.6   42.3    95   41.2   5.0   ESE   0.83  11.0    SE   39.4   42.6   39.5   36.0  30.103  0.00  0.00     0     0.00      0     0.0  0.00   0.0   0.156   0.000   67.6    47   46.6   66.0   8.80  .0749    0.000   201    7    100.0   10 
 3/02/21  4:40a   42.5   42.7   42.5    94   40.9   5.0   ENE   0.83  12.0   ENE   39.4   42.6   39.5   36.0  30.111  0.00  0.00     0     0.00      0     0.0  0.00   0.0   0.156   0.000   67.5    47   46.6   65.8   8.80  .0750    0.000   197    7     99.5   10 
 3/02/21  4:50a   42.6   42.6   42.4    95   41.3   4.0   ENE   0.67   9.0   ENE   40.3   42.7   40.4   36.9  30.113  0.00  0.00     0     0.00      0     0.0  0.00   0.0   0.156   0.000   67.5    47   46.6   65.8   8.80  .0750    0.000   198    7    100.0   10 
 3/02/21  5:00a   42.3   42.6   42.3    94   40.7   1.0     E   0.17   3.0     E   42.3   42.4   42.4   38.9  30.112  0.00  0.00     0     0.00      0     0.0  0.00   0.0   0.158   0.000   67.4    47   46.5   65.7   8.80  .0750    0.000   200    7    100.0   10 
 3/02/21  5:10a   42.0   42.3   42.0    94   40.4   1.0     E   0.17   3.0     E   42.0   42.1   42.1   38.6  30.113  0.00  0.00     0     0.00      0     0.0  0.00   0.0   0.160   0.000   67.3    47   46.4   65.6   8.80  .0750    0.000   201    7    100.0   10 
 3/02/21  5:20a   41.6   42.0   41.5    94   40.0   1.0     E   0.17   3.0     E   41.6   41.7   41.7   38.2  30.114  0.00  0.00     0     0.00      0     0.0  0.00   0.0   0.163   0.000   67.3    47   46.4   65.6   8.80  .0750    0.000   198    7    100.0   10 
 3/02/21  5:30a   41.5   41.6   41.4    94   39.9   0.0     E   0.00   2.0     E   41.5   41.6   41.6   38.0  30.113  0.00  0.00     0     0.00      0     0.0  0.00   0.0   0.163   0.000   67.2    47   46.3   65.5   8.81  .0750    0.000   201    7    100.0   10 
 3/02/21  5:40a   41.5   41.5   41.4    95   40.2   0.0     E   0.00   2.0     E   41.5   41.6   41.6   38.1  30.111  0.00  0.00     0     0.00      0     0.0  0.00   0.0   0.163   0.000   67.2    47   46.3   65.5   8.81  .0750    0.000   202    7    100.0   10 
 3/02/21  5:50a   41.9   41.9   41.5    95   40.6   1.0   SSW   0.17   3.0     E   41.9   42.0   42.0   38.5  30.111  0.00  0.00     0     0.00      0     0.0  0.00   0.0   0.160   0.000   67.1    47   46.2   65.4   8.81  .0750    0.000   200    7    100.0   10 
 3/02/21  6:00a   42.0   42.1   41.9    95   40.7   0.0   SSW   0.00   2.0   SSW   42.0   42.1   42.1   38.6  30.110  0.00  0.00     0     0.00      0     0.0  0.00   0.0   0.160   0.000   67.0    47   46.1   65.3   8.81  .0750    0.000   203    7    100.0   10 
 3/02/21  6:10a   41.9   42.1   41.9    95   40.6   1.0   SSE   0.17   2.0     S   41.9   42.0   42.0   38.5  30.108  0.00  0.00     0     0.00      0     0.0  0.00   0.0   0.160   0.000   67.1    47   46.2   65.4   8.81  .0750    0.000   203    7    100.0   10 
 3/02/21  6:20a   41.8   42.0   41.8    94   40.2   0.0    SE   0.00   2.0   SSE   41.8   41.9   41.9   38.4  30.106  0.00  0.00     0     0.00      0     0.0  0.00   0.0   0.161   0.000   67.3    47   46.4   65.6   8.80  .0750    0.000   204    7    100.0   10 
 3/02/21  6:30a   41.8   41.8   41.7    94   40.2   1.0   ESE   0.17   3.0   ESE   41.8   41.9   41.9   38.4  30.104  0.00  0.00     0     0.00      0     0.0  0.00   0.0   0.161   0.000   67.5    47   46.6   65.8   8.80  .0749    0.000   199    7    100.0   10 
 3/02/21  6:40a   41.6   41.8   41.5    94   40.0   0.0   ESE   0.00   2.0   ESE   41.6   41.7   41.7   38.2  30.105  0.00  0.00     0     0.00      0     0.0  0.00   0.0   0.163   0.000   67.7    47   46.7   66.1   8.80  .0749    0.000   201    7    100.0   10 
 3/02/21  6:50a   41.3   41.6   41.3    94   39.7   1.0   ESE   0.17   2.0   ESE   41.3   41.4   41.4   37.9  30.099  0.00  0.00     1     0.01      5     0.0  0.00   0.0   0.165   0.000   67.9    47   46.9   66.3   8.79  .0749    0.000   203    7    100.0   10 
 3/02/21  7:00a   41.0   41.3   40.9    94   39.4   0.0   ESE   0.00   2.0   ESE   41.0   41.1   41.1   37.7  30.100  0.00  0.00     7     0.10     11     0.0  0.00   0.0   0.167   0.000   68.2    47   47.2   66.6   8.79  .0748    0.000   199    7    100.0   10 
 3/02/21  7:10a   40.9   41.0   40.9    94   39.3   0.0   ---   0.00   0.0   ---   40.9   41.0   41.0   37.7  30.101  0.00  0.00    13     0.19     16     0.0  0.00   0.0   0.167   0.000   68.4    47   47.4   66.8   8.78  .0748    0.000   199    7    100.0   10 
 3/02/21  7:20a   40.7   40.9   40.6    95   39.4   3.0   ESE   0.50   8.0   ENE   39.2   40.8   39.3   36.1  30.100  0.00  0.00    16     0.23     18     0.0  0.00   0.0   0.169   0.000   68.7    47   47.6   67.0   8.78  .0747    0.000   199    7    100.0   10 
 3/02/21  7:30a   40.6   40.7   40.6    95   39.3   2.0   ESE   0.33   4.0   ESE   40.5   40.7   40.6   37.5  30.102  0.00  0.00    21     0.30     25     0.0  0.00   0.0   0.169   0.000   68.7    47   47.6   67.0   8.78  .0747    0.000   197    7     99.5   10 
 3/02/21  7:40a   40.6   40.7   40.6    95   39.3   1.0   ESE   0.17   3.0   ESE   40.6   40.7   40.7   37.7  30.102  0.00  0.00    28     0.40     30     0.0  0.00   0.0   0.169   0.000   68.8    47   47.7   67.1   8.77  .0747    0.000   203    7    100.0   10 
 3/02/21  7:50a   40.9   40.9   40.6    95   39.6   1.0   ESE   0.17   3.0   ESE   40.9   41.0   41.0   38.3  30.101  0.00  0.00    41     0.59     51     0.0  0.00   0.0   0.167   0.000   68.8    47   47.7   67.1   8.77  .0747    0.000   199    7    100.0   10 
 3/02/21  8:00a   41.2   41.2   40.8    95   39.9   1.0   ESE   0.17   3.0   ESE   41.2   41.3   41.3   39.1  30.104  0.00  0.00    64     0.92     74     0.0  0.00   0.0   0.165   0.000   68.9    47   47.8   67.2   8.77  .0747    0.001   197    7     99.5   10 
 3/02/21  8:10a   41.7   41.7   41.2    95   40.4   1.0   ESE   0.17   3.0   ESE   41.7   41.8   41.8   42.8  30.106  0.00  0.00    76     1.09     79     0.0  0.00   0.0   0.162   0.000   69.0    47   47.9   67.3   8.77  .0747    0.000   199    7    100.0   10 
 3/02/21  8:20a   42.0   42.0   41.7    95   40.7   1.0   ESE   0.17   4.0   ESE   42.0   42.1   42.1   43.3  30.107  0.00  0.00    79     1.13     86     0.0  0.00   0.0   0.160   0.000   69.1    47   48.0   67.4   8.77  .0747    0.000   199    7    100.0   10 
 3/02/21  8:30a   42.4   42.4   42.0    95   41.1   1.0   ESE   0.17   3.0   ESE   42.4   42.5   42.5   44.5  30.109  0.00  0.00    99     1.42    105     0.0  0.00   0.0   0.157   0.000   69.2    47   48.1   67.4   8.77  .0747    0.000   201    7    100.0   10 
 3/02/21  8:40a   42.8   42.8   42.4    95   41.5   1.0   ESE   0.17   3.0   ESE   42.8   42.9   42.9   45.3  30.107  0.00  0.00   109     1.56    118     0.0  0.00   0.0   0.154   0.000   69.3    47   48.2   67.5   8.76  .0746    0.000   199    7    100.0   10 
 3/02/21  8:50a   43.2   43.2   42.8    95   41.9   3.0   ESE   0.50   6.0     E   42.0   43.3   42.1   44.8  30.107  0.00  0.00   118     1.69    134     0.0  0.00   0.0   0.151   0.000   69.4    47   48.3   67.6   8.76  .0746    0.000   201    7    100.0   10 
 3/02/21  9:00a   43.3   43.4   43.2    95   42.0   3.0   ESE   0.50   7.0   ESE   42.1   43.4   42.2   43.5  30.103  0.00  0.00    83     1.19    132     0.3  0.02   0.5   0.151   0.000   69.5    47   48.4   67.6   8.76  .0746    0.002   203    7    100.0   10 
 3/02/21  9:10a   43.0   43.3   42.9    95   41.7   5.0   ESE   0.83   9.0    SE   40.0   43.1   40.1   39.6  30.099  0.00  0.00    42     0.60     42     0.0  0.00   0.0   0.153   0.000   69.7    47   48.6   67.8   8.76  .0746    0.000   204    7    100.0   10 
 3/02/21  9:20a   43.0   43.1   42.9    95   41.7   5.0   ESE   0.83   9.0   ESE   40.0   43.1   40.1   39.6  30.095  0.00  0.00    44     0.63     46     0.0  0.00   0.0   0.153   0.000   69.9    47   48.7   67.9   8.75  .0745    0.000   202    7    100.0   10 
 3/02/21  9:30a   43.2   43.3   43.0    95   41.9   6.0   ESE   1.00  10.0     E   39.5   43.3   39.6   39.1  30.094  0.00  0.00    46     0.66     46     0.0  0.00   0.0   0.151   0.000   69.9    47   48.7   67.9   8.75  .0745    0.000   202    7    100.0   10 
 3/02/21  9:40a   43.8   43.8   43.2    96   42.7   5.0   ESE   0.83   9.0   ESE   41.0   44.0   41.2   41.0  30.091  0.00  0.00    52     0.75     62     0.2  0.01   0.8   0.147   0.000   69.9    46   48.2   67.8   8.65  .0745    0.000   200    7    100.0   10 
 3/02/21  9:50a   44.4   44.4   43.8    95   43.1   4.0     E   0.67   8.0    SE   42.4   44.6   42.6   42.7  30.088  0.00  0.00    60     0.86     69     0.8  0.06   0.8   0.143   0.000   69.9    46   48.2   67.8   8.65  .0745    0.000   200    7    100.0   10 
 3/02/21 10:00a   44.5   44.6   44.4    95   43.2   4.0   ESE   0.67   8.0     E   42.5   44.7   42.7   42.5  30.086  0.00  0.00    54     0.77     60     0.2  0.01   0.9   0.142   0.000   70.0    46   48.3   67.9   8.65  .0745    0.001   199    7    100.0   10 
 3/02/21 10:10a   44.9   44.9   44.6    95   43.6   5.0     E   0.83   9.0    SE   42.2   45.1   42.4   42.1  30.082  0.00  0.00    54     0.77     54     0.0  0.00   0.0   0.140   0.000   70.0    46   48.3   67.9   8.65  .0745    0.000   199    7    100.0   10 
 3/02/21 10:20a   45.5   45.5   44.9    95   44.2   4.0   ESE   0.67  10.0   ESE   43.7   45.8   44.0   44.1  30.079  0.00  0.00    63     0.90     69     1.0  0.07   1.0   0.135   0.000   70.0    46   48.3   67.9   8.65  .0745    0.000   198    7    100.0   10 
 3/02/21 10:30a   46.0   46.0   45.5    95   44.6   3.0   ESE   0.50   9.0     E   45.2   46.3   45.5   45.6  30.076  0.00  0.00    65     0.93     69     1.1  0.08   1.1   0.132   0.000   70.0    46   48.3   67.9   8.65  .0745    0.000   203    7    100.0   10 
 3/02/21 10:40a   46.6   46.6   46.0    95   45.2   3.0    SE   0.50   8.0   ESE   45.9   46.9   46.2   46.7  30.075  0.00  0.00    75     1.08     81     1.2  0.09   1.2   0.128   0.000   70.1    46   48.4   68.0   8.65  .0744    0.000   202    7    100.0   10 
 3/02/21 10:50a   47.4   47.4   46.6    95   46.0   2.0   SSE   0.33   6.0     E   47.4   47.7   47.7   49.0  30.071  0.00  0.00    98     1.40    109     1.2  0.09   1.3   0.122   0.000   70.1    46   48.4   68.0   8.65  .0744    0.000   202    7    100.0   10 
 3/02/21 11:00a   48.2   48.2   47.4    94   46.6   5.0    NE   0.83  10.0   NNE   46.1   48.6   46.5   49.1  30.070  0.00  0.00   139     1.99    179     1.3  0.09   1.3   0.117   0.000   70.2    46   48.4   68.2   8.65  .0744    0.002   200    7    100.0   10 
 3/02/21 11:10a   48.1   48.3   48.0    93   46.2   6.0    NE   1.00  10.0   ENE   45.4   48.4   45.7   48.5  30.068  0.00  0.00   148     2.12    174     1.4  0.10   1.4   0.117   0.000   70.2    46   48.4   68.2   8.65  .0744    0.000   201    7    100.0   10 
 3/02/21 11:20a   48.5   48.5   48.1    93   46.6   7.0   NNE   1.17  14.0    NE   45.4   48.9   45.8   47.8  30.068  0.00  0.00   121     1.73    125     1.4  0.10   1.4   0.115   0.000   70.2    46   48.4   68.2   8.65  .0744    0.000   204    7    100.0   10 
 3/02/21 11:30a   48.8   48.8   48.4    93   46.9   8.0   NNE   1.33  14.0   NNE   45.1   49.2   45.5   47.3  30.065  0.00  0.00   119     1.71    121     1.4  0.10   1.4   0.113   0.000   70.3    46   48.5   68.3   8.64  .0744    0.000   202    7    100.0   10 
 3/02/21 11:40a   48.8   48.9   48.7    92   46.6   9.0    NE   1.50  13.0    NE   44.5   49.2   44.9   46.5  30.062  0.00  0.00   117     1.68    121     1.5  0.11   1.5   0.113   0.000   70.3    46   48.5   68.3   8.64  .0744    0.000   204    7    100.0   10 
 3/02/21 11:50a   48.9   48.9   48.7    92   46.7   9.0    NE   1.50  15.0    NE   44.6   49.3   45.0   47.7  30.058  0.00  0.00   155     2.22    279     1.5  0.11   1.5   0.112   0.000   70.3    46   48.5   68.3   8.64  .0744    0.000   204    7    100.0   10 
 3/02/21 12:00p   49.0   49.0   48.8    92   46.8   9.0    NE   1.50  14.0   NNE   44.7   49.4   45.1   53.7  30.054  0.00  0.00   429     6.15    524     1.6  0.11   2.0   0.111   0.000   70.3    46   48.5   68.3   8.64  .0744    0.004   199    7    100.0   10 
 3/02/21 12:10p   48.8   49.0   48.8    91   46.3  10.0   NNE   1.67  14.0    NE   43.9   49.1   44.2   54.0  30.049  0.00  0.00   543     7.78    564     2.2  0.16   2.3   0.113   0.000   70.4    46   48.6   68.4   8.64  .0743    0.000   203    7    100.0   10 
 3/02/21 12:20p   49.0   49.0   48.8    91   46.5  10.0   NNE   1.67  15.0    NE   44.1   49.3   44.4   54.6  30.044  0.00  0.00   557     7.98    570     2.3  0.16   2.3   0.111   0.000   70.4    46   48.6   68.4   8.64  .0743    0.000   195    7     98.5   10 
 3/02/21 12:30p   49.1   49.1   49.0    91   46.6  11.0   NNE   1.83  16.0     N   43.7   49.4   44.0   54.1  30.041  0.00  0.00   568     8.14    580     2.3  0.16   2.4   0.110   0.000   70.4    46   48.6   68.4   8.64  .0743    0.000   195    7     98.5   10 
 3/02/21 12:40p   49.2   49.3   49.1    91   46.7  10.0   NNE   1.67  16.0   NNE   44.3   49.5   44.6   55.4  30.040  0.00  0.00   578     8.29    585     2.4  0.17   2.4   0.110   0.000   70.4    46   48.6   68.4   8.64  .0743    0.000   197    7     99.5   10 
 3/02/21 12:50p   49.5   49.5   49.2    90   46.7  10.0   NNE   1.67  16.0   NNE   44.7   49.8   45.0   56.4  30.033  0.00  0.00   596     8.54    621     2.4  0.17   2.4   0.108   0.000   70.5    46   48.7   68.6   8.64  .0743    0.000   195    7     98.5   10 
 3/02/21  1:00p   49.8   49.9   49.5    90   47.0  10.0    NE   1.67  17.0    NE   45.1   50.1   45.4   58.1  30.027  0.00  0.00   639     9.16    663     2.5  0.18   2.5   0.106   0.000   70.5    46   48.7   68.6   8.64  .0743    0.011   199    7    100.0   10 
 3/02/21  1:10p   49.9   50.0   49.8    89   46.8  11.0   NNE   1.83  17.0   NNE   44.7   50.2   45.0   58.0  30.025  0.00  0.00   660     9.46    670     2.5  0.18   2.5   0.105   0.000   70.5    46   48.7   68.6   8.64  .0743    0.000   203    7    100.0   10 
 3/02/21  1:20p   50.0   50.0   49.9    89   46.9  11.0   NNE   1.83  16.0   NNE   44.8   50.3   45.1   58.1  30.022  0.00  0.00   650     9.32    661     2.4  0.17   2.4   0.104   0.000   70.6    46   48.8   68.7   8.64  .0742    0.000   205    7    100.0   10 
 3/02/21  1:30p   50.2   50.2   50.0    88   46.8  10.0   NNE   1.67  16.0   NNE   45.5   50.4   45.7   59.3  30.018  0.00  0.00   642     9.20    656     2.3  0.16   2.4   0.103   0.000   70.6    46   48.8   68.7   8.64  .0742    0.000   202    7    100.0   10 
 3/02/21  1:40p   50.2   50.2   50.1    88   46.8  10.0   NNE   1.67  17.0   NNE   45.5   50.4   45.7   57.8  30.014  0.00  0.00   573     8.21    636     2.2  0.16   2.3   0.103   0.000   70.7    46   48.9   68.8   8.64  .0742    0.000   199    7    100.0   10 
 3/02/21  1:50p   50.1   50.3   50.1    86   46.1  12.0   NNE   2.00  18.0   NNE   44.4   50.2   44.5   57.6  30.008  0.00  0.00   628     9.00    635     2.1  0.15   2.2   0.103   0.000   70.7    46   48.9   68.8   8.64  .0742    0.000   202    7    100.0   10 
 3/02/21  2:00p   50.1   50.2   50.0    87   46.4  12.0    NE   2.00  18.0     N   44.4   50.3   44.6   58.0  30.004  0.00  0.00   624     8.95    631     2.1  0.15   2.1   0.103   0.000   70.7    46   48.9   68.8   8.64  .0742    0.012   198    7    100.0   10 
 3/02/21  2:10p   50.1   50.1   50.0    86   46.1  11.0   NNE   1.83  17.0    NE   44.9   50.2   45.0   59.2  30.002  0.00  0.00   617     8.84    626     1.9  0.14   2.0   0.103   0.000   70.8    46   49.0   68.9   8.63  .0741    0.000   195    7     98.5   10 
 3/02/21  2:20p   50.1   50.2   50.0    85   45.8  11.0   NNE   1.83  18.0    NE   44.9   50.2   45.0   59.2  30.000  0.00  0.00   600     8.60    608     1.8  0.13   1.9   0.103   0.000   70.8    46   49.0   68.9   8.63  .0741    0.000   196    7     99.0   10 
 3/02/21  2:30p   50.2   50.3   50.0    84   45.6  10.0    NE   1.67  18.0   NNE   45.5   50.3   45.6   60.2  29.998  0.00  0.00   577     8.27    591     1.7  0.12   1.7   0.103   0.000   70.9    47   49.7   69.2   8.75  .0741    0.000   201    7    100.0   10 
 3/02/21  2:40p   50.2   50.2   50.0    84   45.6  11.0    NE   1.83  17.0    NE   45.0   50.3   45.1   59.5  29.998  0.00  0.00   567     8.13    575     1.6  0.11   1.6   0.103   0.000   70.9    47   49.7   69.2   8.75  .0741    0.000   194    7     98.0   10 
 3/02/21  2:50p   50.2   50.3   50.1    83   45.2  10.0   NNE   1.67  19.0    NE   45.5   50.2   45.5   60.7  29.996  0.00  0.00   554     7.94    566     1.4  0.10   1.5   0.103   0.000   71.0    47   49.7   69.3   8.75  .0741    0.000   199    7    100.0   10 
 3/02/21  3:00p   50.1   50.2   50.1    83   45.1  11.0    NE   1.83  17.0    NE   44.9   50.1   44.9   58.6  29.994  0.00  0.00   508     7.28    534     1.3  0.09   1.3   0.103   0.000   71.1    47   49.8   69.4   8.75  .0741    0.011   202    7    100.0   10 
 3/02/21  3:10p   49.9   50.2   49.9    83   44.9  11.0   NNE   1.83  18.0    NE   44.7   50.0   44.8   57.5  29.993  0.00  0.00   466     6.68    487     1.1  0.08   1.2   0.105   0.000   71.1    47   49.8   69.4   8.75  .0740    0.000   194    7     98.0   10 
 3/02/21  3:20p   49.7   50.0   49.6    83   44.7  13.0   NNE   2.17  18.0   NNE   43.5   49.7   43.5   56.0  29.993  0.00  0.00   468     6.71    487     1.0  0.07   1.1   0.106   0.000   71.2    47   49.9   69.6   8.75  .0740    0.000   200    7    100.0   10 
 3/02/21  3:30p   49.7   49.7   49.6    82   44.4  11.0    NE   1.83  19.0   NNE   44.4   49.7   44.4   56.6  29.991  0.00  0.00   422     6.05    450     0.9  0.06   1.0   0.106   0.000   71.2    47   49.9   69.6   8.75  .0740    0.000   201    7    100.0   10 
 3/02/21  3:40p   49.8   49.9   49.6    82   44.5   8.0    NE   1.33  14.0    NE   46.3   49.8   46.3   59.6  29.990  0.00  0.00   398     5.71    420     0.8  0.06   0.8   0.106   0.000   71.2    47   49.9   69.6   8.75  .0740    0.000   201    7    100.0   10 
 3/02/21  3:50p   49.5   49.9   49.5    81   43.9  10.0   NNE   1.67  17.0   NNE   44.7   49.5   44.7   55.8  29.990  0.00  0.00   354     5.07    380     0.7  0.05   0.7   0.108   0.000   71.2    47   49.9   69.6   8.75  .0740    0.000   202    7    100.0   10 
 3/02/21  4:00p   49.5   49.7   49.5    80   43.6   9.0    NE   1.50  16.0    NE   45.3   49.5   45.3   49.3  29.988  0.00  0.00   362     5.19    371     0.6  0.04   0.6   0.108   0.000   71.3    47   50.0   69.8   8.75  .0740    0.009   202    7    100.0   10 
 3/02/21  4:10p   49.5   49.7   49.5    81   43.9  10.0    NE   1.67  16.0     N   44.7   49.5   44.7   48.1  29.987  0.00  0.00   340     4.87    353     0.5  0.04   0.6   0.108   0.000   71.3    47   50.0   69.8   8.75  .0740    0.000   202    7    100.0   10 
 3/02/21  4:20p   49.3   49.6   49.3    81   43.7  10.0    NE   1.67  16.0   NNE   44.5   49.3   44.5   47.1  29.984  0.00  0.00   299     4.29    327     0.0  0.00   0.5   0.109   0.000   71.3    47   50.0   69.8   8.75  .0740    0.000   197    7     99.5   10 
 3/02/21  4:30p   48.7   49.3   48.7    81   43.1  10.0   NNE   1.67  19.0   NNE   43.8   48.6   43.7   45.0  29.980  0.00  0.00   227     3.25    257     0.0  0.00   0.0   0.113   0.000   71.3    47   50.0   69.8   8.75  .0740    0.000   203    7    100.0   10 
 3/02/21  4:40p   48.9   49.0   48.7    82   43.6   9.0    NE   1.50  16.0   NNE   44.6   48.9   44.6   46.4  29.974  0.00  0.00   252     3.61    278     0.0  0.00   0.0   0.112   0.000   71.3    47   50.0   69.8   8.75  .0740    0.000   200    7    100.0   10 
 3/02/21  4:50p   48.8   49.0   48.7    82   43.5   9.0   NNE   1.50  14.0     N   44.5   48.8   44.5   45.6  29.973  0.00  0.00   214     3.07    243     0.0  0.00   0.0   0.113   0.000   71.3    47   50.0   69.8   8.75  .0740    0.000   204    7    100.0   10 
 3/02/21  5:00p   48.4   48.7   48.4    82   43.2   8.0   NNE   1.33  14.0    NE   44.6   48.4   44.6   45.1  29.972  0.00  0.00   182     2.61    197     0.0  0.00   0.0   0.115   0.000   71.3    47   50.0   69.8   8.75  .0740    0.006   202    7    100.0   10 
 3/02/21  5:10p   48.3   48.5   48.2    83   43.4   9.0   NNE   1.50  15.0    NE   43.9   48.3   43.9   43.5  29.973  0.00  0.00   141     2.02    163     0.0  0.00   0.0   0.116   0.000   71.3    47   50.0   69.8   8.75  .0740    0.000   202    7    100.0   10 
 3/02/21  5:20p   48.1   48.3   48.0    83   43.2   8.0   NNE   1.33  14.0    NE   44.2   48.1   44.2   43.2  29.970  0.00  0.00   106     1.52    121     0.0  0.00   0.0   0.117   0.000   71.3    47   50.0   69.8   8.75  .0740    0.000   203    7    100.0   10 
 3/02/21  5:30p   47.6   48.1   47.6    83   42.7   8.0   NNE   1.33  15.0    NE   43.6   47.5   43.5   41.7  29.967  0.00  0.00    73     1.05     88     0.0  0.00   0.0   0.121   0.000   71.4    48   50.7   70.0   8.88  .0739    0.000   204    7    100.0   10 
 3/02/21  5:40p   47.2   47.6   47.2    84   42.6   8.0    NE   1.33  14.0   NNE   43.1   47.2   43.1   40.7  29.966  0.00  0.00    43     0.62     60     0.0  0.00   0.0   0.124   0.000   71.7    48   51.0   70.4   8.88  .0739    0.000   204    7    100.0   10 
 3/02/21  5:50p   46.8   47.2   46.8    84   42.2   8.0    NE   1.33  14.0    NE   42.7   46.8   42.7   40.0  29.971  0.00  0.00    24     0.34     33     0.0  0.00   0.0   0.126   0.000   71.8    48   51.0   70.6   8.89  .0739    0.000   201    7    100.0   10 
 3/02/21  6:00p   46.6   46.8   46.6    85   42.3   8.0   NNE   1.33  14.0   NNE   42.5   46.6   42.5   39.5  29.973  0.00  0.00    12     0.17     18     0.0  0.00   0.0   0.128   0.000   71.9    47   50.6   70.6   8.75  .0739    0.002   201    7    100.0   10 
 3/02/21  6:10p   46.3   46.6   46.3    85   42.0   7.0    NE   1.17  13.0     N   42.8   46.3   42.8   39.4  29.972  0.00  0.00     2     0.03      7     0.0  0.00   0.0   0.130   0.000   71.8    47   50.5   70.5   8.75  .0739    0.000   196    7     99.0   10 
 3/02/21  6:20p   45.9   46.4   45.9    84   41.3   3.0    NE   0.50  10.0   ENE   45.1   45.9   45.1   41.6  29.971  0.00  0.00     0     0.00      0     0.0  0.00   0.0   0.133   0.000   71.8    47   50.5   70.5   8.75  .0739    0.000   200    7    100.0   10 
 3/02/21  6:30p   45.2   45.9   45.2    84   40.7   2.0    NE   0.33   7.0   ENE   45.2   45.1   45.1   41.6  29.970  0.00  0.00     0     0.00      0     0.0  0.00   0.0   0.137   0.000   71.8    47   50.5   70.5   8.75  .0739    0.000   201    7    100.0   10 
 3/02/21  6:40p   44.9   45.2   44.9    85   40.7   3.0   ENE   0.50   7.0     E   43.9   44.8   43.8   40.3  29.967  0.00  0.00     0     0.00      0     0.0  0.00   0.0   0.140   0.000   71.7    47   50.4   70.3   8.75  .0739    0.000   198    7    100.0   10 
 3/02/21  6:50p   44.6   44.9   44.6    85   40.4   3.0   ENE   0.50   6.0   ENE   43.6   44.5   43.5   40.0  29.970  0.00  0.00     0     0.00      0     0.0  0.00   0.0   0.142   0.000   71.6    47   50.3   70.2   8.75  .0739    0.000   197    7     99.5   10 
 3/02/21  7:00p   44.4   44.6   44.4    86   40.5   3.0   ENE   0.50   8.0   ENE   43.3   44.3   43.2   39.7  29.968  0.00  0.00     0     0.00      0     0.0  0.00   0.0   0.143   0.000   71.6    47   50.3   70.2   8.75  .0739    0.000   197    7     99.5   10 
 3/02/21  7:10p   44.3   44.5   44.3    86   40.4   3.0   ENE   0.50   7.0   ENE   43.2   44.2   43.1   39.6  29.965  0.00  0.00     0     0.00      0     0.0  0.00   0.0   0.144   0.000   71.5    47   50.2   70.0   8.75  .0739    0.000   197    7     99.5   10 
 3/02/21  7:20p   44.0   44.3   44.0    86   40.1   2.0   ENE   0.33   8.0   ENE   44.0   43.9   43.9   40.4  29.962  0.00  0.00     0     0.00      0     0.0  0.00   0.0   0.146   0.000   71.4    47   50.1   69.9   8.75  .0739    0.000   200    7    100.0   10 
 3/02/21  7:30p   43.9   44.1   43.9    86   40.0   3.0   ENE   0.50   7.0   ENE   42.8   43.8   42.7   39.1  29.962  0.00  0.00     0     0.00      0     0.0  0.00   0.0   0.147   0.000   71.4    47   50.1   69.9   8.75  .0739    0.000   203    7    100.0   10 
 3/02/21  7:40p   43.7   43.9   43.7    86   39.8   3.0   ENE   0.50   7.0     E   42.6   43.6   42.5   38.9  29.959  0.00  0.00     0     0.00      0     0.0  0.00   0.0   0.148   0.000   71.4    48   50.7   70.0   8.88  .0739    0.000   198    7    100.0   10 
 3/02/21  7:50p   43.6   43.7   43.5    87   40.0   3.0   ENE   0.50   6.0   ENE   42.5   43.6   42.5   38.9  29.959  0.00  0.00     0     0.00      0     0.0  0.00   0.0   0.149   0.000   71.4    48   50.7   70.0   8.88  .0739    0.000   200    7    100.0   10 
 3/02/21  8:00p   43.5   43.6   43.5    87   39.9   3.0   ENE   0.50   9.0   ENE   42.3   43.5   42.3   38.7  29.960  0.00  0.00     0     0.00      0     0.0  0.00   0.0   0.149   0.000   71.4    48   50.7   70.0   8.88  .0739    0.000   201    7    100.0   10 
 3/02/21  8:10p   43.5   43.6   43.4    87   39.9   3.0   ENE   0.50   9.0     E   42.3   43.5   42.3   38.7  29.959  0.00  0.00     0     0.00      0     0.0  0.00   0.0   0.149   0.000   71.4    48   50.7   70.0   8.88  .0739    0.000   202    7    100.0   10 
 3/02/21  8:20p   43.5   43.6   43.4    87   39.9   3.0   ENE   0.50   8.0     E   42.3   43.5   42.3   38.7  29.957  0.00  0.00     0     0.00      0     0.0  0.00   0.0   0.149   0.000   71.4    48   50.7   70.0   8.88  .0739    0.000   200    7    100.0   10 
 3/02/21  8:30p   43.5   43.6   43.5    87   39.9   3.0   ENE   0.50   7.0     E   42.3   43.5   42.3   38.7  29.958  0.00  0.00     0     0.00      0     0.0  0.00   0.0   0.149   0.000   71.3    48   50.6   69.9   8.88  .0739    0.000   205    7    100.0   10 
 3/02/21  8:40p   43.5   43.6   43.5    87   39.9   4.0   ENE   0.67   8.0   ENE   41.3   43.5   41.3   37.7  29.956  0.00  0.00     0     0.00      0     0.0  0.00   0.0   0.149   0.000   71.2    48   50.5   69.7   8.87  .0739    0.000   200    7    100.0   10 
 3/02/21  8:50p   43.5   43.6   43.5    88   40.2   3.0     E   0.50   9.0   ENE   42.3   43.5   42.3   38.8  29.953  0.00  0.00     0     0.00      0     0.0  0.00   0.0   0.149   0.000   71.2    48   50.5   69.7   8.87  .0739    0.000   203    7    100.0   10 
 3/02/21  9:00p   43.3   43.5   43.3    87   39.7   3.0     E   0.50   8.0   ENE   42.1   43.3   42.1   38.5  29.952  0.00  0.00     0     0.00      0     0.0  0.00   0.0   0.151   0.000   71.2    48   50.5   69.7   8.87  .0739    0.000   200    7    100.0   10 
 3/02/21  9:10p   43.3   43.4   43.2    88   40.0   3.0    NE   0.50   8.0   ENE   42.1   43.3   42.1   38.5  29.950  0.00  0.00     0     0.00      0     0.0  0.00   0.0   0.151   0.000   71.1    48   50.4   69.6   8.87  .0739    0.000   204    7    100.0   10 
 3/02/21  9:20p   43.1   43.3   43.0    87   39.5   2.0   ENE   0.33   5.0     E   43.1   43.0   43.0   39.4  29.947  0.00  0.00     0     0.00      0     0.0  0.00   0.0   0.152   0.000   71.0    48   50.3   69.4   8.87  .0739    0.000   201    7    100.0   10 
 3/02/21  9:30p   42.9   43.1   42.9    88   39.6   2.0   ENE   0.33   6.0   ENE   42.9   42.9   42.9   39.3  29.945  0.00  0.00     0     0.00      0     0.0  0.00   0.0   0.153   0.000   71.0    48   50.3   69.4   8.87  .0739    0.000   202    7    100.0   10 
 3/02/21  9:40p   42.6   42.9   42.6    88   39.3   2.0   ENE   0.33   4.0   ENE   42.6   42.5   42.5   38.9  29.944  0.00  0.00     0     0.00      0     0.0  0.00   0.0   0.156   0.000   70.9    48   50.2   69.3   8.87  .0739    0.000   201    7    100.0   10 
Email: AdamSPAM@StormwatchersRetreat.com (To send me email remove the word 'SPAM' from my email address.)